Flight Track Log - Related Links

Times and Time Zones

All times are in EST time to prevent confusion due to time zone crossing. See the UCA3596 flight status page for this flight to view local times or setup timezone preferences in your user account.

Time Position Orientation Groundspeed Altitude Reporting Facility
EST Latitude Longitude Course Direction KTS MPH feet Rate Location/Type
Mon 03:06:38 PM 42.1589 -75.9769 215° Southwest 259 298 3,800  Level New York Center
Mon 03:07:38 PM 42.1264 -76.0081 215° Southwest 150 173 5,000 1,350 Climbing New York Center
Mon 03:08:38 PM 42.0936 -76.0417 217° Southwest 158 182 6,500 1,500 Climbing New York Center
Mon 03:09:38 PM 42.0589 -76.0753 216° Southwest 163 188 8,000 1,150 Climbing New York Center
Mon 03:10:38 PM 42.0194 -76.1167 218° Southwest 168 193 8,800 1,100 Climbing New York Center
Mon 03:11:38 PM 41.9811 -76.1417 206° Southwest 168 193 10,200 1,350 Climbing New York Center
Mon 03:12:38 PM 41.9425 -76.1664 205° Southwest 162 186 11,500 1,350 Climbing New York Center
Mon 03:13:38 PM 41.8972 -76.1961 206° Southwest 162 186 12,900 1,350 Climbing New York Center
Mon 03:14:38 PM 41.8567 -76.2206 204° Southwest 162 186 14,200 1,300 Climbing New York Center
Mon 03:15:38 PM 41.8181 -76.2453 206° Southwest 162 186 15,500 850 Climbing New York Center
Mon 03:16:38 PM 41.7814 -76.2700 207° Southwest 167 192 15,900 250 Climbing New York Center
Mon 03:17:38 PM 41.7278 -76.3044 206° Southwest 184 212 16,000 50 Climbing New York Center
Mon 03:18:38 PM 41.6764 -76.3364 205° Southwest 198 228 16,000  Level New York Center
Mon 03:19:38 PM 41.6206 -76.3678 203° Southwest 209 241 16,000  Level New York Center
Mon 03:20:38 PM 41.5733 -76.4000 207° Southwest 215 247 16,000  Level New York Center
Mon 03:21:38 PM 41.5197 -76.4314 204° Southwest 215 247 16,000  Level New York Center
Mon 03:22:38 PM 41.4639 -76.4656 205° Southwest 210 242 16,000  Level New York Center
Mon 03:23:38 PM 41.4125 -76.4972 205° Southwest 204 235 16,000  Level New York Center
Mon 03:24:38 PM 41.3650 -76.5292 207° Southwest 204 235 16,000  Level New York Center
Mon 03:25:38 PM 41.3136 -76.5578 203° Southwest 204 235 16,000  Level New York Center
Mon 03:26:38 PM 41.2600 -76.5919 206° Southwest 204 235 16,000  Level New York Center
Mon 03:27:38 PM 41.2083 -76.6233 205° Southwest 204 235 16,000  Level New York Center
Mon 03:28:38 PM 41.1589 -76.6547 206° Southwest 204 235 16,000  Level New York Center
Mon 03:29:38 PM 41.1072 -76.6917 208° Southwest 210 242 16,000  Level New York Center
Mon 03:30:38 PM 41.0556 -76.7228 204° Southwest 210 242 16,000  Level New York Center
Mon 03:31:38 PM 41.0039 -76.7542 205° Southwest 205 236 16,000  Level New York Center
Mon 03:32:38 PM 40.9522 -76.7853 204° Southwest 205 236 16,000  Level New York Center
Mon 03:33:38 PM 40.9028 -76.8167 206° Southwest 205 236 16,000  Level New York Center
Mon 03:34:38 PM 40.8511 -76.8478 204° Southwest 205 236 16,000  Level New York Center
Mon 03:35:38 PM 40.7975 -76.8814 205° Southwest 205 236 16,000  Level New York Center
Mon 03:36:38 PM 40.7422 -76.9011 195° South 205 236 16,000  Level New York Center
Mon 03:38:38 PM 40.6278 -76.9375 194° South 215 247 16,000  Level New York Center
Mon 03:39:38 PM 40.5706 -76.9542 192° South 215 247 16,000  Level New York Center
Mon 03:40:38 PM 40.5133 -76.9708 192° South 208 239 16,000  Level New York Center
Mon 03:41:38 PM 40.4564 -76.9875 193° South 213 245 16,000 -370 Level New York Center
Mon 03:43:20 PM 40.3500 -77.0167 192° South 226 260 15,000 -726 Descending Potomac TRACON
Mon 03:44:15 PM 40.3000 -77.0333 194° South 233 268 14,100 -991 Descending Potomac TRACON
Mon 03:45:15 PM 40.2333 -77.0500 191° South 234 269 13,100 -1,000 Descending Potomac TRACON
Mon 03:46:15 PM 40.1667 -77.0833 201° Southwest 238 274 12,100 -1,000 Descending Potomac TRACON
Mon 03:47:15 PM 40.1167 -77.1000 194° South 239 275 11,100 -1,000 Descending Potomac TRACON
Mon 03:48:15 PM 40.0500 -77.1167 191° South 235 270 10,100 -1,000 Descending Potomac TRACON
Mon 03:49:15 PM 39.9833 -77.1333 191° South 238 274 9,100 -550 Descending Potomac TRACON
Mon 03:50:15 PM 39.9167 -77.1500 191° South 231 266 9,000 -149 Descending Potomac TRACON
Mon 03:51:16 PM 39.8667 -77.1833 207° Southwest 217 250 8,800 -522 Descending Potomac TRACON
Mon 03:52:10 PM 39.8167 -77.2167 207° Southwest 236 272 8,000 -417 Descending Potomac TRACON
Mon 03:53:11 PM 39.7500 -77.2667 210° Southwest 226 260 8,000  Level Potomac TRACON
Mon 03:54:11 PM 39.7000 -77.3000 207° Southwest 223 257 8,000  Level Potomac TRACON
Mon 03:55:11 PM 39.6500 -77.3333 207° Southwest 220 253 8,000  Level Potomac TRACON
Mon 03:56:11 PM 39.5833 -77.3500 191° South 229 264 8,000 -250 Level Potomac TRACON
Mon 03:57:11 PM 39.5167 -77.3667 191° South 226 260 7,500 -750 Descending Potomac TRACON
Mon 03:58:11 PM 39.4667 -77.4000 207° Southwest 241 277 6,500 -991 Descending Potomac TRACON
Mon 03:59:06 PM 39.4000 -77.4167 191° South 244 281 5,600 -783 Descending Potomac TRACON
Mon 04:00:06 PM 39.3333 -77.4333 191° South 236 272 5,000 -300 Descending Potomac TRACON
Mon 04:01:06 PM 39.2667 -77.4500 191° South 225 259 5,000 -350 Level Potomac TRACON
Mon 04:02:06 PM 39.2167 -77.4500 180° South 224 258 4,300 -550 Descending Potomac TRACON
Mon 04:03:06 PM 39.1500 -77.4500 180° South 224 258 3,900 -789 Descending Potomac TRACON
Mon 04:04:00 PM 39.1000 -77.4500 180° South 212 244 2,800 -1,043 Descending Potomac TRACON
Mon 04:05:01 PM 39.0500 -77.4667 195° South 168 193 1,900 -843 Descending Potomac TRACON
Mon 04:06:01 PM 39.0000 -77.4667 180° South 120 138 1,100 -800 Descending Potomac TRACON
Mon 04:08:00 PM 38.9474 -77.4599 138° Southeast  Level Estimated
Mon 04:15:00 PM 38.9474 -77.4599 339° North  Level Estimated

Login

Don't have an account? Register now (free) for customized features, flight alerts, and more!